createdAt,value
2023-03-27T00:00:17.136Z,6.82
2023-03-27T00:04:03.117Z,6.86
2023-03-27T00:07:48.054Z,6.84
2023-03-27T00:11:27.217Z,6.83
2023-03-27T00:15:09.161Z,6.85
2023-03-27T00:18:52.111Z,6.84
2023-03-27T00:22:44.773Z,6.81
2023-03-27T00:26:33.106Z,6.79
2023-03-27T00:30:23.125Z,6.79
2023-03-27T00:34:04.274Z,6.80
2023-03-27T00:37:51.258Z,6.82
2023-03-27T00:41:29.219Z,6.81
2023-03-27T00:45:12.092Z,6.81
2023-03-27T00:48:57.179Z,6.81
2023-03-27T00:52:42.119Z,6.82
2023-03-27T00:56:25.157Z,6.80
2023-03-27T01:00:08.269Z,6.80
2023-03-27T01:03:53.202Z,6.79
2023-03-27T01:07:41.251Z,6.77
2023-03-27T01:11:38.090Z,6.77
2023-03-27T01:15:49.203Z,6.80
2023-03-27T01:19:33.161Z,6.80
2023-03-27T01:23:58.866Z,6.81
2023-03-27T01:27:46.176Z,6.80
2023-03-27T01:31:56.148Z,6.76
2023-03-27T01:35:49.197Z,6.81
2023-03-27T01:39:37.148Z,6.84
2023-03-27T01:43:37.788Z,6.83
2023-03-27T01:47:28.311Z,6.84
2023-03-27T01:51:20.350Z,6.84
2023-03-27T01:55:08.199Z,6.86
2023-03-27T01:58:57.215Z,6.83
2023-03-27T02:02:52.230Z,6.82
2023-03-27T02:06:42.199Z,6.80
2023-03-27T02:10:23.024Z,6.81
2023-03-27T02:14:15.475Z,6.79
2023-03-27T02:17:59.315Z,6.78
2023-03-27T02:21:43.687Z,6.74
2023-03-27T02:25:36.213Z,6.71
2023-03-27T02:33:41.479Z,6.70
2023-03-27T02:37:51.236Z,6.70
2023-03-27T02:41:52.287Z,6.68
2023-03-27T02:46:03.822Z,6.59
2023-03-27T02:50:02.315Z,6.45
2023-03-27T02:53:54.371Z,6.53
2023-03-27T02:57:52.422Z,6.53
2023-03-27T03:01:40.014Z,6.58
2023-03-27T03:05:14.099Z,6.59
2023-03-27T03:09:11.623Z,6.59
2023-03-27T03:13:08.267Z,6.62
2023-03-27T03:17:13.235Z,6.62
2023-03-27T03:21:05.573Z,6.61
2023-03-27T03:29:01.393Z,6.59
